Bingham, Illinois
Current Conditions -  °F | °C
As of 6:15 PM on Saturday 20 Dec 2014 (Local Time) from K3LF Reporting Station
Overcast Overcast  
Wind Chill: 31°   Ceiling: 3100
Heat Index: 36°   Visibility: 10mi
Dew Point: 30°   Wind: 6mph
Humidity: 80%   Direction: 140°SE
Pressure: 30.24"   Gusts: NA
Location:  39.11°N, 89.21°W
Report Text: K3LF 210015Z AUTO 14005KT 10SM OVC031 02/M01 A3024 RMK AO2 T00221010
Loading
Personal Weather Stations






























Interactive Weather Map New forecast layout! Learn more

10-Day Weather Forecast

Advertisements
Track Severe Weather on mobile